createdAt,value
2018-10-18T00:00:47.954Z,0
2018-10-18T00:01:48.626Z,0
2018-10-18T00:02:49.299Z,0
2018-10-18T00:03:49.967Z,0
2018-10-18T00:04:50.637Z,0
2018-10-18T00:05:51.314Z,0
2018-10-18T00:06:52.016Z,0
2018-10-18T00:07:52.706Z,0
2018-10-18T00:08:53.360Z,0
2018-10-18T00:09:54.047Z,0
2018-10-18T00:10:54.746Z,0
2018-10-18T00:11:55.417Z,0
2018-10-18T00:12:56.085Z,0
2018-10-18T00:13:56.761Z,0
2018-10-18T00:14:57.429Z,0
2018-10-18T00:15:58.139Z,0
2018-10-18T00:16:58.808Z,0
2018-10-18T00:17:59.494Z,0
2018-10-18T00:19:00.149Z,0
2018-10-18T00:20:00.860Z,0
2018-10-18T00:21:01.492Z,0
2018-10-18T00:22:02.164Z,0
2018-10-18T00:23:02.876Z,0
2018-10-18T00:24:03.558Z,0
2018-10-18T00:25:04.249Z,0
2018-10-18T00:26:04.982Z,0
2018-10-18T00:27:05.667Z,0
2018-10-18T00:28:06.348Z,0
2018-10-18T00:29:07.049Z,0
2018-10-18T00:30:07.827Z,0
2018-10-18T00:31:08.433Z,0
2018-10-18T00:32:09.186Z,0
2018-10-18T00:33:09.772Z,0
2018-10-18T00:34:10.443Z,0
2018-10-18T00:35:11.117Z,0
2018-10-18T00:36:11.930Z,0
2018-10-18T00:37:12.453Z,0
2018-10-18T00:38:13.195Z,0
2018-10-18T00:39:13.798Z,0
2018-10-18T00:40:14.467Z,0
2018-10-18T00:41:15.135Z,0
2018-10-18T00:42:15.943Z,0
2018-10-18T00:43:16.520Z,0
2018-10-18T00:44:17.276Z,0
2018-10-18T00:45:17.861Z,0
2018-10-18T00:46:18.534Z,0
2018-10-18T00:47:19.244Z,0
2018-10-18T00:48:19.918Z,0
2018-10-18T00:49:20.584Z,0
2018-10-18T00:50:21.258Z,0
2018-10-18T00:51:21.924Z,0
2018-10-18T00:52:22.595Z,0
2018-10-18T00:53:23.265Z,0
2018-10-18T00:54:23.935Z,0
2018-10-18T00:55:24.607Z,0
2018-10-18T00:56:25.277Z,0
2018-10-18T00:57:25.949Z,0
2018-10-18T00:58:26.619Z,0
2018-10-18T00:59:27.288Z,0
2018-10-18T01:00:27.963Z,0
2018-10-18T01:01:28.629Z,0
2018-10-18T01:02:29.299Z,0
2018-10-18T01:03:29.974Z,0
2018-10-18T01:04:30.639Z,0
2018-10-18T01:05:31.311Z,0
2018-10-18T01:06:31.983Z,0
2018-10-18T01:07:32.651Z,0
2018-10-18T01:08:33.321Z,0
2018-10-18T01:09:33.989Z,0
2018-10-18T01:10:34.657Z,0
2018-10-18T01:11:35.328Z,0
2018-10-18T01:12:36.029Z,0
2018-10-18T01:13:36.669Z,0
2018-10-18T01:14:37.337Z,0
2018-10-18T01:15:38.007Z,0
2018-10-18T01:16:38.677Z,0
2018-10-18T01:17:39.344Z,0
2018-10-18T01:18:40.014Z,0
2018-10-18T01:19:40.682Z,0
2018-10-18T01:20:41.351Z,0
2018-10-18T01:21:42.021Z,0
2018-10-18T01:22:42.691Z,0
2018-10-18T01:23:43.365Z,0
2018-10-18T01:24:44.029Z,0
2018-10-18T01:25:44.701Z,0
2018-10-18T01:26:45.367Z,0
2018-10-18T01:27:46.040Z,0
2018-10-18T01:28:46.709Z,0
2018-10-18T01:29:47.380Z,0
2018-10-18T01:30:48.050Z,0
2018-10-18T01:31:48.719Z,0
2018-10-18T01:32:49.389Z,0
2018-10-18T01:33:50.059Z,0
2018-10-18T01:34:50.731Z,0
2018-10-18T01:35:51.399Z,0
2018-10-18T01:36:52.067Z,0
2018-10-18T01:37:52.741Z,0
2018-10-18T01:38:53.410Z,0
2018-10-18T01:39:54.080Z,0
2018-10-18T01:40:54.750Z,0
2018-10-18T01:41:55.421Z,0
2018-10-18T01:42:56.087Z,0
2018-10-18T01:43:56.807Z,0
2018-10-18T01:44:57.426Z,0
2018-10-18T01:45:58.099Z,0
2018-10-18T01:46:58.808Z,0
2018-10-18T01:47:59.522Z,0
2018-10-18T01:49:00.152Z,0
2018-10-18T01:50:00.883Z,0
2018-10-18T01:51:01.488Z,0
2018-10-18T01:52:02.207Z,0
2018-10-18T01:53:02.880Z,0
2018-10-18T01:54:03.621Z,0
2018-10-18T01:55:04.219Z,0
2018-10-18T01:56:04.913Z,0
2018-10-18T01:57:05.555Z,0
2018-10-18T01:58:06.226Z,0
2018-10-18T01:59:06.896Z,0
2018-10-18T02:00:07.647Z,0
2018-10-18T02:01:08.272Z,0
2018-10-18T02:02:09.054Z,0
2018-10-18T02:03:09.647Z,0
2018-10-18T02:04:10.321Z,0
2018-10-18T02:05:10.983Z,0
2018-10-18T02:06:11.769Z,0
2018-10-18T02:07:12.324Z,0
2018-10-18T02:08:13.225Z,0
2018-10-18T02:09:13.661Z,0
2018-10-18T02:10:14.334Z,0
2018-10-18T02:11:15.001Z,0
2018-10-18T02:12:15.737Z,0
2018-10-18T02:13:16.337Z,0
2018-10-18T02:14:17.008Z,0
2018-10-18T02:15:17.679Z,0
2018-10-18T02:16:18.351Z,0
2018-10-18T02:17:19.019Z,0
2018-10-18T02:18:19.780Z,0
2018-10-18T02:19:20.497Z,0
2018-10-18T02:20:21.064Z,0
2018-10-18T02:21:21.734Z,0
2018-10-18T02:22:22.448Z,0
2018-10-18T02:23:23.116Z,0
2018-10-18T02:24:23.787Z,0
2018-10-18T02:25:24.466Z,0
2018-10-18T02:26:25.170Z,0
2018-10-18T02:27:25.840Z,0
2018-10-18T02:28:26.512Z,0
2018-10-18T02:29:27.225Z,0
2018-10-18T02:30:27.892Z,0
2018-10-18T02:31:28.560Z,0
2018-10-18T02:32:29.233Z,0
2018-10-18T02:33:29.945Z,0
2018-10-18T02:34:30.614Z,0
2018-10-18T02:35:31.290Z,0
2018-10-18T02:36:31.996Z,0
2018-10-18T02:37:32.716Z,0
2018-10-18T02:38:33.385Z,0
2018-10-18T02:39:34.056Z,0
2018-10-18T02:40:34.773Z,0
2018-10-18T02:41:35.426Z,0
2018-10-18T02:42:36.095Z,0
2018-10-18T02:43:36.766Z,0
2018-10-18T02:44:37.434Z,0
2018-10-18T02:45:38.104Z,0
2018-10-18T02:46:38.772Z,0
2018-10-18T02:47:39.441Z,0
2018-10-18T02:48:40.115Z,0
2018-10-18T02:49:40.826Z,0
2018-10-18T02:50:41.496Z,0
2018-10-18T02:51:42.166Z,0
2018-10-18T02:52:42.836Z,0
2018-10-18T02:53:43.504Z,0
2018-10-18T02:54:44.174Z,0
2018-10-18T02:55:44.845Z,0
2018-10-18T02:56:45.516Z,0
2018-10-18T02:57:46.183Z,0
2018-10-18T02:58:46.853Z,0
2018-10-18T02:59:47.523Z,0
2018-10-18T03:00:48.192Z,0
2018-10-18T03:01:48.865Z,0
2018-10-18T03:02:49.531Z,0
2018-10-18T03:03:50.200Z,0
2018-10-18T03:04:50.871Z,0
2018-10-18T03:05:51.563Z,0
2018-10-18T03:06:52.252Z,0
2018-10-18T03:07:52.924Z,0
2018-10-18T03:08:53.589Z,0
2018-10-18T03:09:54.259Z,0
2018-10-18T03:10:54.929Z,0
2018-10-18T03:11:55.606Z,0
2018-10-18T03:12:56.272Z,0
2018-10-18T03:13:56.936Z,0
2018-10-18T03:14:57.608Z,0
2018-10-18T03:15:58.353Z,0
2018-10-18T03:16:58.945Z,0
2018-10-18T03:17:59.713Z,0
2018-10-18T03:19:00.327Z,0
2018-10-18T03:20:00.997Z,0
2018-10-18T03:21:01.667Z,0
2018-10-18T03:22:02.336Z,0
2018-10-18T03:23:03.008Z,0
2018-10-18T03:24:03.697Z,0
2018-10-18T03:25:04.380Z,0
2018-10-18T03:26:05.052Z,0
2018-10-18T03:27:05.769Z,0
2018-10-18T03:28:06.425Z,0
2018-10-18T03:29:07.104Z,0
2018-10-18T03:30:07.892Z,0
2018-10-18T03:31:08.433Z,0
2018-10-18T03:32:09.103Z,0
2018-10-18T03:33:09.772Z,0
2018-10-18T03:34:10.440Z,0
2018-10-18T03:35:11.110Z,0
2018-10-18T03:36:11.832Z,0
2018-10-18T03:37:12.449Z,0
2018-10-18T03:38:13.119Z,0
2018-10-18T03:39:13.786Z,0
2018-10-18T03:40:14.455Z,0
2018-10-18T03:41:15.176Z,0
2018-10-18T03:42:15.892Z,0
2018-10-18T03:43:16.470Z,0
2018-10-18T03:44:17.176Z,0
2018-10-18T03:45:17.846Z,0
2018-10-18T03:46:18.558Z,0
2018-10-18T03:47:19.226Z,0
2018-10-18T03:48:19.975Z,0
2018-10-18T03:49:20.615Z,0
2018-10-18T03:50:21.269Z,0
2018-10-18T03:51:21.940Z,0
2018-10-18T03:52:22.609Z,0
2018-10-18T03:53:23.278Z,0
2018-10-18T03:54:24.001Z,0
2018-10-18T03:55:24.667Z,0
2018-10-18T03:56:25.335Z,0
2018-10-18T03:57:26.002Z,0
2018-10-18T03:58:26.673Z,0
2018-10-18T03:59:27.389Z,0
2018-10-18T04:00:28.052Z,0
2018-10-18T04:01:28.723Z,0
2018-10-18T04:02:29.390Z,0
2018-10-18T04:03:30.059Z,0
2018-10-18T04:04:30.729Z,0
2018-10-18T04:05:31.399Z,0
2018-10-18T04:06:32.070Z,0
2018-10-18T04:07:32.780Z,0
2018-10-18T04:08:33.490Z,0
2018-10-18T04:09:34.163Z,0
2018-10-18T04:10:34.875Z,0
2018-10-18T04:11:35.544Z,0
2018-10-18T04:12:36.274Z,0
2018-10-18T04:13:36.916Z,0
2018-10-18T04:14:37.584Z,0
2018-10-18T04:15:38.252Z,0
2018-10-18T04:16:38.922Z,0
2018-10-18T04:17:39.593Z,0
2018-10-18T04:18:40.260Z,0
2018-10-18T04:19:40.928Z,0
2018-10-18T04:20:41.599Z,0
2018-10-18T04:21:42.270Z,0
2018-10-18T04:22:42.935Z,0
2018-10-18T04:23:43.647Z,0
2018-10-18T04:24:44.316Z,0
2018-10-18T04:25:45.078Z,0
2018-10-18T04:26:45.655Z,0
2018-10-18T04:27:46.324Z,0
2018-10-18T04:28:46.993Z,0
2018-10-18T04:29:47.703Z,0
2018-10-18T04:30:48.373Z,0
2018-10-18T04:31:49.042Z,0
2018-10-18T04:32:49.711Z,0
2018-10-18T04:33:50.379Z,0
2018-10-18T04:34:51.049Z,0
2018-10-18T04:35:51.776Z,0
2018-10-18T04:36:52.385Z,0
2018-10-18T04:37:53.056Z,0
2018-10-18T04:38:53.773Z,0
2018-10-18T04:39:54.435Z,0
2018-10-18T04:40:55.104Z,0
2018-10-18T04:41:55.778Z,0
2018-10-18T04:42:56.444Z,0
2018-10-18T04:43:57.113Z,0
2018-10-18T04:44:57.783Z,0
2018-10-18T04:45:58.451Z,0
2018-10-18T04:46:59.128Z,0
2018-10-18T04:48:00.020Z,0
2018-10-18T04:49:00.541Z,0
2018-10-18T04:50:01.133Z,0
2018-10-18T04:51:01.838Z,0
2018-10-18T04:52:02.503Z,0
2018-10-18T04:53:03.172Z,0
2018-10-18T04:54:03.844Z,0
2018-10-18T04:55:04.560Z,0
2018-10-18T04:56:05.181Z,0
2018-10-18T04:57:05.857Z,0
2018-10-18T04:58:06.561Z,0
2018-10-18T04:59:07.230Z,0
2018-10-18T05:00:07.899Z,0
2018-10-18T05:01:08.640Z,0
2018-10-18T05:02:09.274Z,0
2018-10-18T05:03:09.944Z,0
2018-10-18T05:04:10.611Z,0
2018-10-18T05:05:11.282Z,0
2018-10-18T05:06:11.951Z,0
2018-10-18T05:07:12.746Z,0
2018-10-18T05:08:13.289Z,0
2018-10-18T05:09:13.957Z,0
2018-10-18T05:10:14.626Z,0
2018-10-18T05:11:15.313Z,0
2018-10-18T05:12:15.963Z,0
2018-10-18T05:13:16.748Z,0
2018-10-18T05:14:17.300Z,0
2018-10-18T05:15:17.967Z,4
2018-10-18T05:16:18.638Z,4
2018-10-18T05:17:19.306Z,0
2018-10-18T05:18:19.976Z,4
2018-10-18T05:19:20.650Z,4
2018-10-18T05:20:21.314Z,8
2018-10-18T05:21:21.984Z,8
2018-10-18T05:22:22.655Z,8
2018-10-18T05:23:23.327Z,12
2018-10-18T05:24:24.038Z,12
2018-10-18T05:25:24.784Z,16
2018-10-18T05:26:25.380Z,16
2018-10-18T05:27:26.046Z,20
2018-10-18T05:28:26.716Z,24
2018-10-18T05:29:27.386Z,24
2018-10-18T05:30:28.054Z,32
2018-10-18T05:31:28.737Z,36
2018-10-18T05:32:29.397Z,40
2018-10-18T05:33:30.101Z,44
2018-10-18T05:34:30.781Z,52
2018-10-18T05:35:31.453Z,60
2018-10-18T05:36:32.123Z,64
2018-10-18T05:37:32.839Z,76
2018-10-18T05:38:33.462Z,88
2018-10-18T05:39:34.176Z,96
2018-10-18T05:40:34.851Z,104
2018-10-18T05:41:35.519Z,108
2018-10-18T05:42:36.190Z,108
2018-10-18T05:43:36.861Z,112
2018-10-18T05:44:37.534Z,120
2018-10-18T05:45:38.205Z,128
2018-10-18T05:46:38.886Z,140
2018-10-18T05:47:39.585Z,156
2018-10-18T05:48:40.253Z,176
2018-10-18T05:49:40.925Z,188
2018-10-18T05:50:41.595Z,196
2018-10-18T05:51:42.267Z,204
2018-10-18T05:52:42.938Z,224
2018-10-18T05:53:43.795Z,240
2018-10-18T05:54:44.317Z,260
2018-10-18T05:55:44.990Z,272
2018-10-18T05:56:45.661Z,292
2018-10-18T05:57:46.331Z,312
2018-10-18T05:58:47.004Z,316
2018-10-18T05:59:47.676Z,316
2018-10-18T06:00:48.351Z,312
2018-10-18T06:01:49.021Z,312
2018-10-18T06:02:49.692Z,296
2018-10-18T06:03:50.366Z,284
2018-10-18T06:04:51.033Z,276
2018-10-18T06:05:51.704Z,268
2018-10-18T06:06:52.384Z,268
2018-10-18T06:07:53.047Z,280
2018-10-18T06:08:53.720Z,304
2018-10-18T06:09:54.499Z,324
2018-10-18T06:10:55.065Z,340
2018-10-18T06:11:55.739Z,360
2018-10-18T06:12:56.441Z,380
2018-10-18T06:13:57.086Z,384
2018-10-18T06:14:57.756Z,380
2018-10-18T06:15:58.430Z,376
2018-10-18T06:16:59.100Z,384
2018-10-18T06:17:59.775Z,384
2018-10-18T06:19:00.452Z,396
2018-10-18T06:20:01.138Z,404
2018-10-18T06:21:01.837Z,408
2018-10-18T06:22:02.508Z,420
2018-10-18T06:23:03.219Z,452
2018-10-18T06:24:03.888Z,504
2018-10-18T06:25:04.629Z,596
2018-10-18T06:26:05.241Z,692
2018-10-18T06:27:05.914Z,752
2018-10-18T06:28:06.585Z,784
2018-10-18T06:29:07.318Z,816
2018-10-18T06:30:07.931Z,844
2018-10-18T06:31:08.666Z,896
2018-10-18T06:32:09.278Z,1004
2018-10-18T06:33:09.973Z,1068
2018-10-18T06:34:10.627Z,1040
2018-10-18T06:35:11.332Z,964
2018-10-18T06:36:11.972Z,892
2018-10-18T06:37:12.689Z,864
2018-10-18T06:38:13.326Z,876
2018-10-18T06:39:14.083Z,888
2018-10-18T06:40:14.667Z,940
2018-10-18T06:41:15.427Z,952
2018-10-18T06:42:16.055Z,896
2018-10-18T06:43:16.766Z,796
2018-10-18T06:44:17.402Z,828
2018-10-18T06:45:18.074Z,912
2018-10-18T06:46:18.747Z,908
2018-10-18T06:47:19.491Z,808
2018-10-18T06:48:20.095Z,748
2018-10-18T06:49:20.818Z,776
2018-10-18T06:50:21.440Z,848
2018-10-18T06:51:22.113Z,948
2018-10-18T06:52:22.788Z,1060
2018-10-18T06:53:23.462Z,1204
2018-10-18T06:54:24.136Z,1380
2018-10-18T06:55:24.812Z,1444
2018-10-18T06:56:25.527Z,1532
2018-10-18T06:57:26.240Z,1696
2018-10-18T06:58:26.917Z,1832
2018-10-18T06:59:27.593Z,1756
2018-10-18T07:00:28.332Z,1740
2018-10-18T07:01:28.953Z,1980
2018-10-18T07:02:29.663Z,2128
2018-10-18T07:03:30.339Z,2000
2018-10-18T07:04:31.013Z,2128
2018-10-18T07:05:31.690Z,2572
2018-10-18T07:06:32.366Z,2800
2018-10-18T07:07:33.042Z,2828
2018-10-18T07:08:33.722Z,2716
2018-10-18T07:09:34.394Z,2652
2018-10-18T07:10:35.099Z,2864
2018-10-18T07:11:35.789Z,3392
2018-10-18T07:12:36.466Z,3704
2018-10-18T07:13:37.140Z,3736
2018-10-18T07:14:37.817Z,3896
2018-10-18T07:15:38.494Z,3988
2018-10-18T07:16:39.172Z,4012
2018-10-18T07:17:39.860Z,3808
2018-10-18T07:18:40.524Z,3988
2018-10-18T07:19:41.201Z,4452
2018-10-18T07:20:41.879Z,4732
2018-10-18T07:21:42.557Z,4464
2018-10-18T07:22:43.233Z,3988
2018-10-18T07:23:43.911Z,3736
2018-10-18T07:24:44.587Z,3528
2018-10-18T07:25:45.304Z,3412
2018-10-18T07:26:46.026Z,3328
2018-10-18T07:27:46.702Z,3316
2018-10-18T07:28:47.376Z,3268
2018-10-18T07:29:48.052Z,3288
2018-10-18T07:30:48.730Z,3412
2018-10-18T07:31:49.406Z,3552
2018-10-18T07:32:50.101Z,3428
2018-10-18T07:33:50.800Z,3220
2018-10-18T07:34:51.503Z,3132
2018-10-18T07:35:52.176Z,3180
2018-10-18T07:36:52.825Z,3388
2018-10-18T07:37:53.499Z,3492
2018-10-18T07:38:54.175Z,3520
2018-10-18T07:39:54.851Z,3536
2018-10-18T07:40:55.563Z,3700
2018-10-18T07:41:56.246Z,3948
2018-10-18T07:42:56.883Z,4232
2018-10-18T07:43:57.559Z,4340
2018-10-18T07:44:58.234Z,4300
2018-10-18T07:45:58.912Z,3912
2018-10-18T07:46:59.680Z,3724
2018-10-18T07:48:00.278Z,3688
2018-10-18T07:49:00.942Z,3840
2018-10-18T07:50:01.620Z,3896
2018-10-18T07:51:02.294Z,3820
2018-10-18T07:52:02.973Z,3692
2018-10-18T07:53:03.788Z,3608
2018-10-18T07:54:04.397Z,3624
2018-10-18T07:55:05.002Z,3672
2018-10-18T07:56:05.727Z,3456
2018-10-18T07:57:06.402Z,3096
2018-10-18T07:58:07.078Z,2952
2018-10-18T07:59:07.754Z,2800
2018-10-18T08:00:08.565Z,2528
2018-10-18T08:01:09.105Z,2428
2018-10-18T08:02:09.780Z,2520
2018-10-18T08:03:10.456Z,2704
2018-10-18T08:04:11.131Z,2880
2018-10-18T08:05:11.853Z,3116
2018-10-18T08:06:12.528Z,3328
2018-10-18T08:07:13.321Z,3368
2018-10-18T08:08:13.880Z,3456
2018-10-18T08:09:14.561Z,3532
2018-10-18T08:10:15.278Z,3672
2018-10-18T08:11:15.953Z,3740
2018-10-18T08:12:16.631Z,3860
2018-10-18T08:13:17.430Z,3944
2018-10-18T08:14:17.985Z,4064
2018-10-18T08:15:18.663Z,4184
2018-10-18T08:16:19.341Z,4420
2018-10-18T08:17:20.042Z,4544
2018-10-18T08:18:20.696Z,4560
2018-10-18T08:19:21.374Z,4716
2018-10-18T08:20:22.049Z,4980
2018-10-18T08:21:22.734Z,5172
2018-10-18T08:22:23.481Z,5180
2018-10-18T08:23:24.127Z,5092
2018-10-18T08:24:24.803Z,4992
2018-10-18T08:25:25.480Z,4980
2018-10-18T08:26:26.158Z,4980
2018-10-18T08:27:26.836Z,4916
2018-10-18T08:28:27.513Z,5036
2018-10-18T08:29:28.189Z,5064
2018-10-18T08:30:28.867Z,5136
2018-10-18T08:31:29.706Z,5084
2018-10-18T08:32:30.222Z,5308
2018-10-18T08:33:30.899Z,5408
2018-10-18T08:34:31.621Z,5404
2018-10-18T08:35:32.318Z,5296
2018-10-18T08:36:33.019Z,5112
2018-10-18T08:37:33.763Z,4988
2018-10-18T08:38:34.453Z,4896
2018-10-18T08:39:35.131Z,4876
2018-10-18T08:40:35.810Z,4864
2018-10-18T08:41:36.487Z,4968
2018-10-18T08:42:37.166Z,5136
2018-10-18T08:43:37.843Z,5236
2018-10-18T08:44:38.521Z,5284
2018-10-18T08:45:39.199Z,5320
2018-10-18T08:46:39.877Z,5264
2018-10-18T08:47:40.559Z,5084
2018-10-18T08:48:41.235Z,4848
2018-10-18T08:49:41.976Z,4644
2018-10-18T08:50:42.630Z,4496
2018-10-18T08:51:43.304Z,4548
2018-10-18T08:52:43.984Z,4576
2018-10-18T08:53:44.661Z,4640
2018-10-18T08:54:45.382Z,4676
2018-10-18T08:55:46.060Z,4708
2018-10-18T08:56:46.746Z,4716
2018-10-18T08:57:47.415Z,4592
2018-10-18T08:58:48.094Z,4364
2018-10-18T08:59:48.772Z,4200
2018-10-18T09:00:49.452Z,4184
2018-10-18T09:01:50.131Z,4280
2018-10-18T09:02:50.836Z,4372
2018-10-18T09:03:51.529Z,4516
2018-10-18T09:04:52.207Z,4680
2018-10-18T09:05:52.885Z,4852
2018-10-18T09:06:53.577Z,5068
2018-10-18T09:07:54.285Z,5204
2018-10-18T09:08:54.987Z,5408
2018-10-18T09:09:55.685Z,5508
2018-10-18T09:10:56.407Z,5556
2018-10-18T09:11:57.083Z,5536
2018-10-18T09:12:57.824Z,5508
2018-10-18T09:13:58.478Z,5544
2018-10-18T09:14:59.153Z,5580
2018-10-18T09:15:59.916Z,5608
2018-10-18T09:17:00.510Z,5628
2018-10-18T09:18:01.188Z,5628
2018-10-18T09:19:01.885Z,5640
2018-10-18T09:20:02.547Z,5628
2018-10-18T09:21:03.250Z,5616
2018-10-18T09:22:03.945Z,5612
2018-10-18T09:23:04.624Z,5580
2018-10-18T09:24:05.303Z,5556
2018-10-18T09:25:06.026Z,5568
2018-10-18T09:26:06.660Z,5568
2018-10-18T09:27:07.338Z,5528
2018-10-18T09:28:08.016Z,5572
2018-10-18T09:29:08.696Z,5544
2018-10-18T09:30:09.439Z,5528
2018-10-18T09:31:10.091Z,5500
2018-10-18T09:32:10.730Z,5528
2018-10-18T09:33:11.410Z,5496
2018-10-18T09:34:12.087Z,5464
2018-10-18T09:35:12.766Z,5432
2018-10-18T09:36:13.443Z,5388
2018-10-18T09:37:14.184Z,5336
2018-10-18T09:38:14.858Z,5300
2018-10-18T09:39:15.477Z,5348
2018-10-18T09:40:16.155Z,5448
2018-10-18T09:41:16.833Z,5620
2018-10-18T09:42:17.514Z,5792
2018-10-18T09:43:18.293Z,5860
2018-10-18T09:44:18.993Z,5872
2018-10-18T09:45:19.662Z,5856
2018-10-18T09:46:20.341Z,5936
2018-10-18T09:47:21.018Z,6088
2018-10-18T09:48:21.696Z,6120
2018-10-18T09:49:22.377Z,6012
2018-10-18T09:50:23.055Z,5944
2018-10-18T09:51:23.737Z,5984
2018-10-18T09:52:24.413Z,6288
2018-10-18T09:53:25.091Z,6628
2018-10-18T09:54:25.800Z,6872
2018-10-18T09:55:26.539Z,7056
2018-10-18T09:56:27.177Z,7148
2018-10-18T09:57:27.849Z,7240
2018-10-18T09:58:28.529Z,7204
2018-10-18T09:59:29.207Z,6916
2018-10-18T10:00:29.887Z,6572
2018-10-18T10:01:30.565Z,6248
2018-10-18T10:02:31.243Z,5764
2018-10-18T10:03:31.922Z,5640
2018-10-18T10:04:32.600Z,6224
2018-10-18T10:05:33.279Z,7100
2018-10-18T10:06:33.960Z,7752
2018-10-18T10:07:34.679Z,8440
2018-10-18T10:08:35.361Z,8480
2018-10-18T10:09:36.039Z,8264
2018-10-18T10:10:36.717Z,7988
2018-10-18T10:11:37.431Z,7536
2018-10-18T10:12:38.078Z,7208
2018-10-18T10:13:38.868Z,7164
2018-10-18T10:14:39.440Z,7152
2018-10-18T10:15:40.120Z,7276
2018-10-18T10:16:40.793Z,7348
2018-10-18T10:17:41.589Z,7320
2018-10-18T10:18:42.156Z,7096
2018-10-18T10:19:42.834Z,6784
2018-10-18T10:20:43.515Z,6436
2018-10-18T10:21:44.195Z,6064
2018-10-18T10:22:44.874Z,5612
2018-10-18T10:23:45.555Z,5292
2018-10-18T10:24:46.301Z,5016
2018-10-18T10:25:46.914Z,4844
2018-10-18T10:26:47.594Z,4788
2018-10-18T10:27:48.272Z,5036
2018-10-18T10:28:48.952Z,5660
2018-10-18T10:29:49.632Z,5500
2018-10-18T10:30:50.355Z,5352
2018-10-18T10:31:51.035Z,5380
2018-10-18T10:32:51.760Z,5360
2018-10-18T10:33:52.395Z,5244
2018-10-18T10:34:53.080Z,4832
2018-10-18T10:35:53.756Z,4856
2018-10-18T10:36:54.446Z,5224
2018-10-18T10:37:55.158Z,5428
2018-10-18T10:38:55.841Z,5708
2018-10-18T10:39:56.545Z,6044
2018-10-18T10:40:57.263Z,6568
2018-10-18T10:41:58.001Z,6928
2018-10-18T10:42:58.738Z,7368
2018-10-18T10:43:59.349Z,7268
2018-10-18T10:45:00.047Z,7232
2018-10-18T10:46:00.770Z,7136
2018-10-18T10:47:01.406Z,6936
2018-10-18T10:48:02.142Z,6688
2018-10-18T10:49:02.789Z,6460
2018-10-18T10:50:03.483Z,6260
2018-10-18T10:51:04.174Z,6104
2018-10-18T10:52:04.856Z,6056
2018-10-18T10:53:05.491Z,6016
2018-10-18T10:54:06.190Z,5988
2018-10-18T10:55:06.848Z,6036
2018-10-18T10:56:07.573Z,6008
2018-10-18T10:57:08.259Z,6020
2018-10-18T10:58:08.940Z,6040
2018-10-18T10:59:09.635Z,5980
2018-10-18T11:00:10.399Z,5896
2018-10-18T11:01:11.005Z,5808
2018-10-18T11:02:11.742Z,5696
2018-10-18T11:03:12.485Z,5448
2018-10-18T11:04:13.048Z,5180
2018-10-18T11:05:13.770Z,4860
2018-10-18T11:06:14.512Z,4576
2018-10-18T11:07:15.130Z,4352
2018-10-18T11:08:15.945Z,4144
2018-10-18T11:09:16.534Z,3980
2018-10-18T11:10:17.210Z,3772
2018-10-18T11:11:17.891Z,3680
2018-10-18T11:12:18.647Z,3756
2018-10-18T11:13:19.252Z,3688
2018-10-18T11:14:20.042Z,3680
2018-10-18T11:15:20.700Z,3788
2018-10-18T11:16:21.295Z,3956
2018-10-18T11:17:22.022Z,4104
2018-10-18T11:18:22.657Z,4172
2018-10-18T11:19:23.339Z,4116
2018-10-18T11:20:24.021Z,4120
2018-10-18T11:21:24.737Z,4196
2018-10-18T11:22:25.382Z,4260
2018-10-18T11:23:26.084Z,4296
2018-10-18T11:24:26.831Z,4456
2018-10-18T11:25:27.467Z,4616
2018-10-18T11:26:28.146Z,4592
2018-10-18T11:27:28.832Z,4572
2018-10-18T11:28:29.509Z,4644
2018-10-18T11:29:30.189Z,4656
2018-10-18T11:30:30.869Z,4552
2018-10-18T11:31:31.549Z,4556
2018-10-18T11:32:32.229Z,4552
2018-10-18T11:33:32.914Z,4528
2018-10-18T11:34:33.736Z,4464
2018-10-18T11:35:34.315Z,4428
2018-10-18T11:36:34.997Z,4512
2018-10-18T11:37:35.680Z,4708
2018-10-18T11:38:36.361Z,4816
2018-10-18T11:39:37.044Z,4836
2018-10-18T11:40:37.724Z,4764
2018-10-18T11:41:38.445Z,4592
2018-10-18T11:42:39.184Z,4328
2018-10-18T11:43:39.835Z,4084
2018-10-18T11:44:40.544Z,3936
2018-10-18T11:45:41.223Z,3836
2018-10-18T11:46:41.906Z,3724
2018-10-18T11:47:42.594Z,3576
2018-10-18T11:48:43.270Z,3436
2018-10-18T11:49:43.953Z,3328
2018-10-18T11:50:44.680Z,3248
2018-10-18T11:51:45.472Z,3208
2018-10-18T11:52:46.085Z,3164
2018-10-18T11:53:46.802Z,3084
2018-10-18T11:54:47.494Z,2992
2018-10-18T11:55:48.220Z,2960
2018-10-18T11:56:48.901Z,3012
2018-10-18T11:57:49.589Z,3108
2018-10-18T11:58:50.267Z,3212
2018-10-18T11:59:50.951Z,3312
2018-10-18T12:00:51.632Z,3412
2018-10-18T12:01:52.365Z,3532
2018-10-18T12:02:53.087Z,3696
2018-10-18T12:03:53.781Z,3964
2018-10-18T12:04:54.453Z,4248
2018-10-18T12:05:55.132Z,4404
2018-10-18T12:06:55.814Z,4436
2018-10-18T12:07:56.531Z,4376
2018-10-18T12:08:57.179Z,4196
2018-10-18T12:09:57.860Z,3940
2018-10-18T12:10:58.589Z,3740
2018-10-18T12:11:59.223Z,3612
2018-10-18T12:12:59.905Z,3556
2018-10-18T12:14:00.603Z,3572
2018-10-18T12:15:01.271Z,3660
2018-10-18T12:16:01.957Z,3768
2018-10-18T12:17:02.683Z,3820
2018-10-18T12:18:03.318Z,3808
2018-10-18T12:19:04.112Z,3760
2018-10-18T12:20:04.760Z,3712
2018-10-18T12:21:05.362Z,3688
2018-10-18T12:22:06.044Z,3656
2018-10-18T12:23:06.766Z,3608
2018-10-18T12:24:07.408Z,3584
2018-10-18T12:25:08.090Z,3548
2018-10-18T12:26:08.784Z,3504
2018-10-18T12:27:09.491Z,3532
2018-10-18T12:28:10.214Z,3648
2018-10-18T12:29:10.959Z,3724
2018-10-18T12:30:11.580Z,3776
2018-10-18T12:31:12.259Z,3808
2018-10-18T12:32:12.982Z,3872
2018-10-18T12:33:13.669Z,3940
2018-10-18T12:34:14.383Z,4000
2018-10-18T12:35:15.125Z,4052
2018-10-18T12:36:15.788Z,4116
2018-10-18T12:37:16.466Z,4184
2018-10-18T12:38:17.240Z,4284
2018-10-18T12:39:17.883Z,4376
2018-10-18T12:40:18.599Z,4448
2018-10-18T12:41:19.378Z,4448
2018-10-18T12:42:19.878Z,4384
2018-10-18T12:43:20.560Z,4240
2018-10-18T12:44:21.246Z,4052
2018-10-18T12:45:21.933Z,3860
2018-10-18T12:46:22.654Z,3748
2018-10-18T12:47:23.333Z,3764
2018-10-18T12:48:24.106Z,3848
2018-10-18T12:49:24.698Z,3928
2018-10-18T12:50:25.379Z,3968
2018-10-18T12:51:26.066Z,3928
2018-10-18T12:52:26.785Z,3824
2018-10-18T12:53:27.465Z,3708
2018-10-18T12:54:28.199Z,3640
2018-10-18T12:55:28.867Z,3576
2018-10-18T12:56:29.571Z,3492
2018-10-18T12:57:30.265Z,3492
2018-10-18T12:58:30.949Z,3584
2018-10-18T12:59:31.630Z,3716
2018-10-18T13:00:32.313Z,3876
2018-10-18T13:01:32.994Z,4080
2018-10-18T13:02:33.758Z,4360
2018-10-18T13:03:34.359Z,4640
2018-10-18T13:04:35.087Z,4832
2018-10-18T13:05:35.772Z,4852
2018-10-18T13:06:36.451Z,4636
2018-10-18T13:07:37.132Z,4272
2018-10-18T13:08:37.815Z,3944
2018-10-18T13:09:38.499Z,3736
2018-10-18T13:10:39.181Z,3644
2018-10-18T13:11:39.861Z,3544
2018-10-18T13:12:40.631Z,3444
2018-10-18T13:13:41.303Z,3316
2018-10-18T13:14:41.991Z,3300
2018-10-18T13:15:42.698Z,3332
2018-10-18T13:16:43.403Z,3360
2018-10-18T13:17:44.129Z,3408
2018-10-18T13:18:44.810Z,3364
2018-10-18T13:19:45.492Z,3232
2018-10-18T13:20:46.173Z,3100
2018-10-18T13:21:46.854Z,3056
2018-10-18T13:22:47.538Z,3136
2018-10-18T13:23:48.222Z,3384
2018-10-18T13:24:48.905Z,3744
2018-10-18T13:25:49.638Z,4124
2018-10-18T13:26:50.316Z,4412
2018-10-18T13:27:50.988Z,4588
2018-10-18T13:28:51.669Z,4696
2018-10-18T13:29:52.401Z,4800
2018-10-18T13:30:53.070Z,4948
2018-10-18T13:31:53.759Z,5120
2018-10-18T13:32:54.438Z,5304
2018-10-18T13:33:55.160Z,5440
2018-10-18T13:34:55.799Z,5476
2018-10-18T13:35:56.523Z,5432
2018-10-18T13:36:57.166Z,5288
2018-10-18T13:37:57.898Z,4996
2018-10-18T13:38:58.633Z,4600
2018-10-18T13:39:59.261Z,4244
2018-10-18T13:40:59.945Z,3984
2018-10-18T13:42:00.649Z,3784
2018-10-18T13:43:01.308Z,3612
2018-10-18T13:44:02.062Z,3440
2018-10-18T13:45:02.714Z,3304
2018-10-18T13:46:03.400Z,3236
2018-10-18T13:47:04.083Z,3200
2018-10-18T13:48:04.824Z,3160
2018-10-18T13:49:05.488Z,3084
2018-10-18T13:50:06.219Z,2944
2018-10-18T13:51:06.849Z,2656
2018-10-18T13:52:07.531Z,2272
2018-10-18T13:53:08.215Z,1900
2018-10-18T13:54:09.009Z,1628
2018-10-18T13:55:09.620Z,1432
2018-10-18T13:56:10.332Z,1368
2018-10-18T13:57:11.020Z,1452
2018-10-18T13:58:11.698Z,1660
2018-10-18T13:59:12.534Z,1988
2018-10-18T14:00:13.077Z,2140
2018-10-18T14:01:13.744Z,2200
2018-10-18T14:02:14.566Z,2192
2018-10-18T14:03:15.107Z,2232